Time;durP1;ratioP1;P1;durP2;ratioP2;P2;SDS_P1;SDS_P2;PMS_P1;PMS_P2;Temp;Humidity;BMP_temperature;BMP_pressure;BME280_temperature;BME280_humidity;BME280_pressure;Samples;Min_cycle;Max_cycle;Signal;HPM_P1;HPM_P2
2021/08/13 00:00:59;;;;;;;10.00;8.80;;;;;;;18.17;75.38;101985.28;2617538;46;20235;-77
2021/08/13 00:03:24;;;;;;;7.43;6.50;;;;;;;18.23;75.82;101985.31;2617433;54;20152;-78
2021/08/13 00:05:49;;;;;;;11.23;10.13;;;;;;;18.20;75.97;101987.03;2617160;54;20135;-77
2021/08/13 00:08:15;;;;;;;9.50;8.60;;;;;;;18.20;75.88;101987.03;2617554;54;20147;-78
2021/08/13 00:10:40;;;;;;;12.33;10.47;;;;;;;18.20;76.15;101982.69;2617505;54;20166;-77
2021/08/13 00:13:06;;;;;;;9.73;8.73;;;;;;;18.19;76.39;101985.28;2617180;54;20166;-77
2021/08/13 00:15:31;;;;;;;10.37;9.37;;;;;;;18.19;76.41;101987.88;2617362;54;20127;-76
2021/08/13 00:17:57;;;;;;;11.23;9.77;;;;;;;18.20;76.22;101974.91;2617383;54;20154;-77
2021/08/13 00:20:22;;;;;;;9.70;8.50;;;;;;;18.23;76.15;101976.69;2617659;54;20227;-77
2021/08/13 00:22:49;;;;;;;12.03;10.47;;;;;;;18.22;76.68;101975.78;2617176;54;20180;-78
2021/08/13 00:25:14;;;;;;;8.40;7.50;;;;;;;18.27;76.65;101971.50;2617302;54;20703;-77
2021/08/13 00:27:40;;;;;;;11.00;9.90;;;;;;;18.52;76.62;101968.22;2617236;54;20177;-78
2021/08/13 00:30:06;;;;;;;9.97;8.97;;;;;;;18.65;76.23;101977.78;2617270;54;20116;-78
2021/08/13 00:32:31;;;;;;;11.50;9.97;;;;;;;18.53;76.56;101971.69;2617284;54;20207;-77
2021/08/13 00:34:56;;;;;;;10.40;9.20;;;;;;;18.61;76.39;101976.03;2617231;54;20123;-77
2021/08/13 00:37:22;;;;;;;8.87;7.87;;;;;;;18.58;76.54;101964.78;2617259;54;20163;-77
2021/08/13 00:39:47;;;;;;;11.97;9.43;;;;;;;18.57;76.35;101969.09;2617464;47;20186;-77
2021/08/13 00:42:12;;;;;;;9.00;7.80;;;;;;;18.54;76.47;101971.69;2617115;46;20158;-76
2021/08/13 00:44:38;;;;;;;7.63;6.87;;;;;;;18.57;76.43;101973.44;2616455;54;20151;-78
2021/08/13 00:47:03;;;;;;;9.33;8.43;;;;;;;18.58;76.52;101972.56;2617185;54;20184;-76
2021/08/13 00:49:28;;;;;;;10.97;9.67;;;;;;;18.54;76.99;101969.09;2617136;47;20124;-75
2021/08/13 00:51:54;;;;;;;10.83;9.83;;;;;;;18.51;76.88;101969.06;2617085;54;20238;-77
2021/08/13 00:54:19;;;;;;;8.30;7.50;;;;;;;18.46;76.79;101968.19;2616401;54;20709;-77
2021/08/13 00:56:45;;;;;;;8.73;7.83;;;;;;;18.47;76.95;101976.84;2617072;54;20134;-77
2021/08/13 00:59:10;;;;;;;9.07;8.23;;;;;;;18.47;77.16;101980.28;2617256;54;20128;-77
2021/08/13 01:01:36;;;;;;;9.53;8.53;;;;;;;18.50;77.09;101987.22;2616598;54;20158;-78
2021/08/13 01:04:02;;;;;;;10.10;9.00;;;;;;;18.69;76.61;101986.44;2617234;54;20127;-76
2021/08/13 01:06:27;;;;;;;11.20;10.03;;;;;;;18.78;76.63;101995.16;2616950;54;20127;-77
2021/08/13 01:08:53;;;;;;;11.17;10.07;;;;;;;18.79;75.86;101996.88;2617127;54;20135;-76
2021/08/13 01:11:25;;;;;;;8.70;7.83;;;;;;;18.82;75.96;102004.69;2617262;54;20163;-78
2021/08/13 01:13:56;;;;;;;12.63;11.23;;;;;;;18.89;75.57;101993.47;2617004;54;20154;-76
2021/08/13 01:16:25;;;;;;;12.77;11.57;;;;;;;19.01;75.65;102003.91;2616991;54;20131;-76
2021/08/13 01:19:07;;;;;;;13.17;11.97;;;;;;;19.02;74.90;101997.00;2617282;54;20163;-77
2021/08/13 01:21:53;;;;;;;13.77;12.37;;;;;;;18.68;76.23;102002.88;2617307;54;20131;-77
2021/08/13 01:24:25;;;;;;;12.80;11.47;;;;;;;18.50;76.68;102003.66;2615662;54;20192;-77
2021/08/13 01:27:00;;;;;;;11.20;10.10;;;;;;;18.48;77.09;101999.34;2617230;54;20170;-77
2021/08/13 01:29:35;;;;;;;14.77;12.63;;;;;;;18.42;77.19;102009.69;2617170;54;20147;-78
2021/08/13 01:32:03;;;;;;;11.17;10.17;;;;;;;18.51;77.15;102007.16;2616845;54;20163;-76
2021/08/13 01:34:31;;;;;;;12.40;11.20;;;;;;;18.55;76.88;102012.34;2617269;54;20135;-77
2021/08/13 01:36:58;;;;;;;11.30;10.07;;;;;;;18.47;77.14;102006.22;2616944;54;20143;-77
2021/08/13 01:39:31;;;;;;;13.10;11.63;;;;;;;18.42;76.98;102012.28;2616915;54;20130;-77
2021/08/13 01:41:58;;;;;;;11.13;10.13;;;;;;;18.39;77.41;101994.97;2617050;54;20151;-77
2021/08/13 01:44:25;;;;;;;11.70;10.50;;;;;;;18.37;77.57;101998.41;2616846;54;20124;-76
2021/08/13 01:46:52;;;;;;;12.67;11.47;;;;;;;18.35;77.71;101992.31;2617288;39;20539;-76
2021/08/13 01:49:19;;;;;;;11.00;9.90;;;;;;;18.42;77.23;102002.75;2616981;54;20115;-76
2021/08/13 01:51:46;;;;;;;12.27;11.03;;;;;;;18.41;77.20;102005.31;2616760;54;20941;-77
2021/08/13 01:54:13;;;;;;;12.50;11.40;;;;;;;18.38;76.90;102001.00;2616794;54;20131;-77
2021/08/13 01:56:38;;;;;;;11.00;10.00;;;;;;;18.37;77.28;102004.44;2617159;54;20135;-78
2021/08/13 01:59:04;;;;;;;11.37;10.27;;;;;;;18.44;76.77;102000.16;2616765;54;20247;-77
2021/08/13 02:01:30;;;;;;;12.20;10.90;;;;;;;18.53;76.92;102002.81;2616838;54;20128;-77
2021/08/13 02:03:56;;;;;;;11.70;10.60;;;;;;;18.52;76.74;102006.28;2616922;54;20671;-77
2021/08/13 02:06:22;;;;;;;11.90;10.17;;;;;;;18.46;76.95;101999.31;2616957;54;20127;-78
2021/08/13 02:08:47;;;;;;;10.00;9.07;;;;;;;18.40;76.75;102004.47;2616835;54;20162;-78
2021/08/13 02:11:14;;;;;;;12.57;9.80;;;;;;;18.40;76.95;102008.78;2616945;54;20139;-77
2021/08/13 02:13:39;;;;;;;9.93;8.93;;;;;;;18.35;77.13;102005.28;2616764;54;20700;-75
2021/08/13 02:16:09;;;;;;;11.57;10.47;;;;;;;18.46;77.13;101998.44;2617533;54;20131;-77
2021/08/13 02:18:37;;;;;;;10.00;9.00;;;;;;;18.45;76.92;102001.91;2617614;54;20147;-76
2021/08/13 02:21:06;;;;;;;15.27;13.53;;;;;;;18.69;76.26;101999.44;2617529;54;20130;-75
2021/08/13 02:23:31;;;;;;;12.00;10.70;;;;;;;18.67;76.08;101995.97;2617955;54;20522;-77
2021/08/13 02:25:57;;;;;;;11.77;10.43;;;;;;;18.62;76.09;101998.56;2617514;54;20128;-76
2021/08/13 02:28:22;;;;;;;9.93;9.03;;;;;;;18.52;76.66;102001.94;2617502;54;20164;-76
2021/08/13 02:30:47;;;;;;;12.83;11.57;;;;;;;18.55;76.38;101990.72;2617620;54;20120;-77
2021/08/13 02:33:13;;;;;;;13.00;11.80;;;;;;;18.61;76.55;101986.41;2616945;54;20136;-76
2021/08/13 02:35:38;;;;;;;13.17;11.77;;;;;;;18.66;75.98;101991.66;2617641;54;20163;-77
2021/08/13 02:38:17;;;;;;;13.20;12.00;;;;;;;18.57;76.60;101997.63;2617548;46;20171;-77
2021/08/13 02:40:54;;;;;;;14.00;12.60;;;;;;;18.57;76.29;101994.19;2617460;54;20131;-78
2021/08/13 02:43:24;;;;;;;13.50;11.63;;;;;;;18.48;76.89;102000.22;2617661;54;20127;-77
2021/08/13 02:45:54;;;;;;;13.80;12.50;;;;;;;18.41;76.48;101992.34;2617684;54;20223;-76
2021/08/13 02:48:20;;;;;;;14.47;13.07;;;;;;;18.35;77.02;101993.22;2617931;39;20539;-77
2021/08/13 02:50:47;;;;;;;9.50;8.50;;;;;;;18.37;76.78;101982.84;2617422;54;20122;-77
2021/08/13 02:53:20;;;;;;;14.67;12.30;;;;;;;18.40;76.84;101983.72;2617336;54;20161;-77
2021/08/13 02:55:53;;;;;;;13.67;12.13;;;;;;;18.48;76.65;101981.16;2617801;39;20542;-77
2021/08/13 02:58:22;;;;;;;13.67;12.30;;;;;;;18.35;76.64;101979.34;2617517;54;20150;-76
2021/08/13 03:00:49;;;;;;;14.70;13.20;;;;;;;18.20;76.80;101982.69;2617615;54;20138;-75
2021/08/13 03:03:17;;;;;;;13.37;12.13;;;;;;;18.10;76.89;101980.88;2617253;54;20151;-78
2021/08/13 03:05:49;;;;;;;14.50;13.10;;;;;;;17.99;77.10;101989.44;2617418;54;20152;-77
2021/08/13 03:08:15;;;;;;;15.03;13.50;;;;;;;17.90;77.19;101984.19;2617625;54;20143;-76
2021/08/13 03:10:41;;;;;;;16.60;14.13;;;;;;;17.82;77.19;101975.50;2617215;54;20159;-77
2021/08/13 03:13:07;;;;;;;12.97;11.70;;;;;;;17.75;77.54;101982.34;2617479;54;20135;-76
2021/08/13 03:15:34;;;;;;;10.73;9.73;;;;;;;17.70;76.88;101981.44;2617738;54;20659;-77
2021/08/13 03:18:01;;;;;;;14.13;12.63;;;;;;;17.64;77.32;101985.72;2617617;54;20163;-75
2021/08/13 03:20:27;;;;;;;14.87;13.27;;;;;;;17.56;77.26;101985.66;2617630;54;20134;-76
2021/08/13 03:22:52;;;;;;;14.50;13.00;;;;;;;17.48;77.23;101986.41;2617581;54;20128;-77
2021/08/13 03:25:18;;;;;;;14.87;13.37;;;;;;;17.41;77.46;101976.84;2617278;39;20532;-76
2021/08/13 03:27:44;;;;;;;15.90;13.47;;;;;;;17.32;77.51;101974.97;2617156;54;20186;-77
2021/08/13 03:30:10;;;;;;;14.53;13.03;;;;;;;17.26;77.80;101976.63;2617252;54;20135;-77
2021/08/13 03:32:36;;;;;;;14.07;12.67;;;;;;;17.20;77.46;101971.41;2617458;54;20140;-77
2021/08/13 03:35:02;;;;;;;15.00;12.87;;;;;;;17.14;77.27;101981.72;2617420;54;20123;-75
2021/08/13 03:37:29;;;;;;;13.03;11.70;;;;;;;17.10;77.52;101973.06;2617748;39;20557;-76
2021/08/13 03:39:54;;;;;;;14.13;12.73;;;;;;;17.07;77.09;101980.78;2617044;54;20186;-76
2021/08/13 03:42:19;;;;;;;13.83;12.33;;;;;;;17.03;77.25;101970.34;2617355;46;20933;-78
2021/08/13 03:44:44;;;;;;;12.57;11.27;;;;;;;16.99;77.44;101976.38;2617230;54;20151;-77
2021/08/13 03:47:10;;;;;;;14.33;12.97;;;;;;;16.94;77.32;101978.03;2617450;47;20708;-77
2021/08/13 03:49:35;;;;;;;14.43;12.93;;;;;;;16.88;77.47;101978.81;2616763;54;20255;-76
2021/08/13 03:52:00;;;;;;;15.43;13.83;;;;;;;16.84;77.39;101979.63;2617625;46;20159;-77
2021/08/13 03:54:25;;;;;;;14.10;12.80;;;;;;;16.84;77.96;101989.09;2618345;39;20217;-77
2021/08/13 03:56:51;;;;;;;13.00;11.80;;;;;;;16.84;77.65;101989.09;2617444;54;20139;-77
2021/08/13 03:59:16;;;;;;;10.70;9.70;;;;;;;16.82;77.45;101996.88;2617172;54;20123;-76
2021/08/13 04:01:41;;;;;;;14.20;12.73;;;;;;;16.79;77.23;101996.81;2617237;54;20131;-77
2021/08/13 04:04:06;;;;;;;12.17;10.97;;;;;;;16.77;77.42;101995.06;2617488;46;20146;-76
2021/08/13 04:06:32;;;;;;;15.73;14.13;;;;;;;16.74;77.42;101995.00;2617714;39;20548;-77
2021/08/13 04:08:57;;;;;;;15.20;13.70;;;;;;;16.70;77.33;101990.66;2619587;54;20119;-76
2021/08/13 04:11:22;;;;;;;15.10;13.60;;;;;;;16.67;77.63;101996.66;2624425;47;20139;-77
2021/08/13 04:13:48;;;;;;;15.47;13.87;;;;;;;16.65;77.95;101997.47;2625426;46;20130;-78
2021/08/13 04:16:13;;;;;;;12.77;11.47;;;;;;;16.65;77.98;101993.19;2619652;39;20632;-75
2021/08/13 04:18:38;;;;;;;14.53;13.03;;;;;;;16.62;77.80;101992.28;2617801;54;20151;-76
2021/08/13 04:21:04;;;;;;;11.70;10.13;;;;;;;16.67;77.81;101990.63;2618040;39;20580;-78
2021/08/13 04:23:29;;;;;;;12.67;11.27;;;;;;;16.68;77.80;101985.47;2617952;46;20139;-77
2021/08/13 04:25:54;;;;;;;12.70;11.33;;;;;;;16.67;78.22;101988.88;2617277;47;20152;-77
2021/08/13 04:28:19;;;;;;;12.13;10.97;;;;;;;16.67;78.20;101988.88;2617235;54;20172;-76
2021/08/13 04:30:45;;;;;;;12.50;11.23;;;;;;;16.67;78.71;102001.81;2617141;54;20207;-77
2021/08/13 04:33:11;;;;;;;10.50;9.53;;;;;;;16.65;78.45;102006.13;2617337;54;20230;-77
2021/08/13 04:35:37;;;;;;;9.87;8.93;;;;;;;16.64;78.47;102003.50;2616825;54;20152;-76
2021/08/13 04:38:04;;;;;;;8.97;8.10;;;;;;;16.64;78.31;101993.16;2616497;54;20147;-77
2021/08/13 04:40:29;;;;;;;12.93;11.63;;;;;;;16.87;78.41;101995.22;2617092;39;20190;-77
2021/08/13 04:42:54;;;;;;;11.23;10.13;;;;;;;16.93;78.59;102003.03;2617417;54;20171;-74
2021/08/13 04:45:19;;;;;;;13.73;12.40;;;;;;;17.03;78.57;101999.69;2617174;54;20135;-76
2021/08/13 04:47:45;;;;;;;13.40;12.07;;;;;;;17.07;78.81;101991.13;2617127;54;20151;-77
2021/08/13 04:50:10;;;;;;;15.23;13.80;;;;;;;17.19;78.90;101990.38;2617503;46;20242;-77
2021/08/13 04:53:02;;;;;;;14.33;12.83;;;;;;;17.28;78.34;102004.31;2616968;54;20139;-76
2021/08/13 04:55:27;;;;;;;12.13;10.93;;;;;;;17.21;78.53;101999.91;2616919;54;20314;-76
2021/08/13 04:57:53;;;;;;;11.43;10.30;;;;;;;17.15;78.58;101991.19;2616941;54;20135;-77
2021/08/13 05:00:19;;;;;;;10.90;9.90;;;;;;;17.09;79.04;102004.94;2616793;54;20151;-77
2021/08/13 05:02:45;;;;;;;8.23;7.43;;;;;;;17.09;78.91;102007.53;2616636;39;20568;-76
2021/08/13 05:05:11;;;;;;;12.87;11.57;;;;;;;17.10;78.91;102013.59;2617046;54;20211;-77
2021/08/13 05:07:37;;;;;;;13.53;12.13;;;;;;;17.11;79.18;102016.19;2616304;54;20187;-75
2021/08/13 05:10:20;;;;;;;14.13;12.77;;;;;;;17.16;79.05;102018.81;2616958;54;20123;-77
2021/08/13 05:12:45;;;;;;;10.77;9.77;;;;;;;17.22;78.94;102016.31;2616361;54;20131;-76
2021/08/13 05:15:11;;;;;;;6.80;6.13;;;;;;;17.27;79.01;102018.09;2616912;54;20254;-75
2021/08/13 05:17:37;;;;;;;9.60;8.73;;;;;;;17.34;79.04;102019.03;2616730;54;20143;-77
2021/08/13 05:20:04;;;;;;;7.83;6.83;;;;;;;17.42;79.00;102014.84;2616987;54;20632;-77
2021/08/13 05:22:32;;;;;;;10.83;9.73;;;;;;;17.54;78.56;102012.38;2616601;54;20138;-77
2021/08/13 05:24:57;;;;;;;13.20;12.00;;;;;;;17.71;78.41;102009.09;2616992;54;20199;-77
2021/08/13 05:27:22;;;;;;;15.97;14.30;;;;;;;17.87;78.14;102010.94;2627285;36;20211;-77
2021/08/13 05:29:48;;;;;;;13.10;11.93;;;;;;;17.93;77.99;102013.63;2616480;46;20135;-78
2021/08/13 05:32:13;;;;;;;18.47;16.67;;;;;;;18.02;78.48;102005.91;2617116;39;21031;-78
2021/08/13 05:34:38;;;;;;;15.17;13.77;;;;;;;18.12;78.23;102015.50;2617296;54;20228;-75
2021/08/13 05:37:03;;;;;;;21.37;19.27;;;;;;;18.38;77.38;102005.34;2616457;54;20247;-75
2021/08/13 05:39:29;;;;;;;18.87;16.93;;;;;;;18.50;77.36;102019.25;2616867;54;20775;-78
2021/08/13 05:41:54;;;;;;;15.17;13.63;;;;;;;18.60;76.95;102013.22;2619632;46;20139;-79
2021/08/13 05:44:19;;;;;;;20.73;18.67;;;;;;;18.98;75.52;102018.63;2617642;46;20124;-76
2021/08/13 05:46:44;;;;;;;19.13;17.23;;;;;;;19.00;75.87;102012.56;2614458;47;20701;-78
2021/08/13 05:49:10;;;;;;;21.37;19.17;;;;;;;19.26;74.25;102007.50;2611318;36;20200;-79
2021/08/13 05:51:35;;;;;;;20.20;18.20;;;;;;;19.44;73.96;102005.78;2615527;54;20171;-78
2021/08/13 05:54:00;;;;;;;20.43;18.43;;;;;;;19.38;74.03;102003.19;2615402;54;20208;-77
2021/08/13 05:56:26;;;;;;;20.03;18.07;;;;;;;19.54;74.25;102006.69;2615689;54;20168;-78
2021/08/13 05:58:51;;;;;;;20.77;18.67;;;;;;;19.59;73.44;102011.03;2616310;54;20645;-77
2021/08/13 06:01:16;;;;;;;20.60;18.60;;;;;;;19.68;73.65;102018.84;2616387;54;20166;-78
2021/08/13 06:03:41;;;;;;;20.57;18.37;;;;;;;19.80;73.49;102015.38;2616421;54;20159;-79
2021/08/13 06:06:07;;;;;;;20.87;18.77;;;;;;;19.89;72.94;102013.66;2616717;47;20180;-78
2021/08/13 06:08:32;;;;;;;20.23;18.17;;;;;;;20.25;72.26;102013.66;2616505;54;20143;-78
2021/08/13 06:10:57;;;;;;;17.93;16.07;;;;;;;20.16;72.09;102020.59;2615737;54;20134;-77
2021/08/13 06:13:23;;;;;;;18.67;16.73;;;;;;;20.31;71.55;102012.78;2616180;54;20343;-77
2021/08/13 06:15:48;;;;;;;20.53;18.33;;;;;;;20.32;71.06;101997.16;2616029;47;20707;-77
2021/08/13 06:18:13;;;;;;;19.87;17.87;;;;;;;20.55;69.67;101991.91;2615958;54;20238;-77
2021/08/13 06:20:38;;;;;;;19.93;17.93;;;;;;;20.69;69.73;101998.78;2615988;54;20123;-76
2021/08/13 06:23:04;;;;;;;18.57;16.53;;;;;;;20.78;69.31;101990.09;2616408;54;20134;-77
2021/08/13 06:25:29;;;;;;;20.70;17.23;;;;;;;20.93;69.46;101996.16;2616423;54;20132;-75
2021/08/13 06:27:55;;;;;;;18.87;16.97;;;;;;;21.14;68.04;101996.03;2615749;54;20167;-76
2021/08/13 06:30:22;;;;;;;18.17;15.77;;;;;;;20.88;69.08;101997.00;2616206;39;20529;-75
2021/08/13 06:32:48;;;;;;;19.40;17.40;;;;;;;21.22;67.87;101996.84;2615660;54;20160;-77
2021/08/13 06:35:13;;;;;;;17.53;14.53;;;;;;;21.00;68.41;101992.63;2615729;54;20136;-77
2021/08/13 06:37:53;;;;;;;16.17;14.67;;;;;;;21.08;68.10;101989.97;2615484;54;20156;-76
2021/08/13 06:40:20;;;;;;;13.03;11.73;;;;;;;21.09;68.60;101983.91;2615769;39;20513;-77
2021/08/13 06:42:46;;;;;;;17.00;15.20;;;;;;;21.41;66.20;101980.22;2615679;54;20135;-76
2021/08/13 06:45:14;;;;;;;16.67;15.03;;;;;;;21.64;65.50;101977.44;2615627;39;20550;-77
2021/08/13 06:47:40;;;;;;;14.07;12.67;;;;;;;21.62;66.32;101971.41;2615009;54;20250;-77
2021/08/13 06:50:06;;;;;;;14.03;12.80;;;;;;;21.81;65.54;101979.09;2615140;54;20124;-77
2021/08/13 06:52:31;;;;;;;15.00;13.50;;;;;;;22.08;63.87;101984.09;2615702;54;20142;-77
2021/08/13 06:54:57;;;;;;;15.63;13.93;;;;;;;22.13;64.19;101986.63;2616061;39;20602;-77
2021/08/13 06:57:22;;;;;;;12.53;11.30;;;;;;;22.07;64.70;101982.31;2614809;47;20170;-77
2021/08/13 06:59:47;;;;;;;13.70;12.20;;;;;;;22.38;63.37;101980.28;2636704;31;20210;-76
2021/08/13 07:02:13;;;;;;;12.97;11.67;;;;;;;22.35;63.91;101975.94;2616675;39;20552;-78
2021/08/13 07:04:38;;;;;;;13.13;11.80;;;;;;;22.44;63.46;101986.28;2616477;54;20790;-77
2021/08/13 07:07:03;;;;;;;13.63;12.33;;;;;;;22.70;63.52;101985.19;2616449;47;20151;-78
2021/08/13 07:09:28;;;;;;;11.20;10.07;;;;;;;22.53;64.03;101979.28;2616505;47;20136;-78
2021/08/13 07:11:54;;;;;;;13.03;11.37;;;;;;;22.93;61.56;101981.38;2616677;46;20156;-78
2021/08/13 07:14:19;;;;;;;12.23;11.07;;;;;;;23.07;60.96;101982.06;2616174;54;20143;-78
2021/08/13 07:16:44;;;;;;;12.23;11.03;;;;;;;22.94;61.72;101985.75;2616567;47;20128;-77
2021/08/13 07:19:09;;;;;;;12.00;10.70;;;;;;;22.83;63.15;101979.78;2616608;46;20138;-77
2021/08/13 07:21:35;;;;;;;10.93;9.83;;;;;;;23.07;62.37;101983.84;2616570;54;20154;-77
2021/08/13 07:24:00;;;;;;;10.87;9.77;;;;;;;23.38;61.52;101985.19;2616281;54;20156;-77
2021/08/13 07:26:25;;;;;;;10.87;9.77;;;;;;;23.60;61.36;101973.47;2616124;54;20310;-77
2021/08/13 07:28:51;;;;;;;8.97;8.17;;;;;;;23.76;59.73;101980.22;2616115;54;20139;-78
2021/08/13 07:31:16;;;;;;;11.63;10.07;;;;;;;24.08;59.16;101991.03;2616044;54;20127;-77
2021/08/13 07:33:41;;;;;;;9.83;8.63;;;;;;;24.06;60.05;101992.78;2615618;54;20669;-78
2021/08/13 07:36:06;;;;;;;9.45;8.45;;;;;;;24.03;60.65;101993.72;2616274;54;20187;-78
2021/08/13 07:38:39;;;;;;;9.60;8.65;;;;;;;24.08;61.55;101996.28;2616126;46;20158;-75
2021/08/13 07:41:05;;;;;;;12.38;9.65;;;;;;;24.31;59.51;101981.00;2616122;54;20119;-79
2021/08/13 07:43:31;;;;;;;9.35;8.07;;;;;;;24.15;60.39;101983.03;2616639;54;20163;-78
2021/08/13 07:45:56;;;;;;;9.00;8.10;;;;;;;24.15;60.94;101975.19;2616437;47;20223;-78
2021/08/13 07:48:21;;;;;;;11.50;7.85;;;;;;;24.26;60.45;101990.69;2616333;47;20242;-78
2021/08/13 07:50:46;;;;;;;8.75;7.85;;;;;;;24.67;58.97;101993.44;2616086;47;20131;-78
2021/08/13 07:53:12;;;;;;;10.15;8.82;;;;;;;24.74;56.30;101992.41;2616058;54;20123;-77
2021/08/13 07:55:37;;;;;;;8.30;7.50;;;;;;;24.83;56.75;101986.97;2616750;39;20533;-79
2021/08/13 07:58:02;;;;;;;6.82;6.22;;;;;;;24.81;56.83;101980.91;2616484;47;20147;-78
2021/08/13 08:00:27;;;;;;;6.28;5.68;;;;;;;25.07;56.82;101984.69;2618406;36;20206;-78
2021/08/13 08:02:53;;;;;;;8.60;7.28;;;;;;;25.73;53.89;101972.66;2616492;47;20686;-77
2021/08/13 08:05:18;;;;;;;9.05;8.15;;;;;;;25.79;52.83;101974.28;2616228;54;20118;-76
2021/08/13 08:07:44;;;;;;;7.70;7.00;;;;;;;25.77;53.42;101974.31;2616394;54;20712;-77
2021/08/13 08:10:10;;;;;;;8.70;7.22;;;;;;;25.82;53.80;101976.81;2615831;54;20953;-78
2021/08/13 08:12:35;;;;;;;10.18;7.35;;;;;;;26.09;49.85;101973.50;2615841;47;20178;-78
2021/08/13 08:15:00;;;;;;;7.03;6.22;;;;;;;26.16;51.76;101982.97;2616307;54;20210;-78
2021/08/13 08:17:25;;;;;;;8.57;7.50;;;;;;;26.23;50.98;101980.13;2616498;54;20139;-79
2021/08/13 08:19:51;;;;;;;7.50;6.80;;;;;;;26.07;52.78;101981.41;2616402;54;20675;-76
2021/08/13 08:22:16;;;;;;;7.32;6.63;;;;;;;26.17;52.28;101984.69;2616118;54;20124;-78
2021/08/13 08:24:41;;;;;;;10.48;8.30;;;;;;;26.29;51.69;101985.22;2616271;54;20111;-79
2021/08/13 08:27:07;;;;;;;7.30;5.75;;;;;;;26.39;51.93;101986.69;2616513;54;20147;-76
2021/08/13 08:29:32;;;;;;;8.52;7.30;;;;;;;26.63;50.27;101982.56;2615861;54;20120;-79
2021/08/13 08:31:57;;;;;;;9.43;7.63;;;;;;;27.01;49.17;101979.66;2616152;54;20173;-76
2021/08/13 08:34:23;;;;;;;8.30;7.07;;;;;;;27.15;47.50;101978.34;2616035;54;20132;-79
2021/08/13 08:36:48;;;;;;;7.10;6.40;;;;;;;26.77;49.92;101972.50;2615932;54;20680;-77
2021/08/13 08:39:13;;;;;;;7.78;6.97;;;;;;;27.03;48.23;101967.34;2615988;54;20807;-78
2021/08/13 08:41:39;;;;;;;8.10;7.30;;;;;;;27.15;48.08;101967.81;2616004;54;20152;-78
2021/08/13 08:44:04;;;;;;;7.45;6.75;;;;;;;27.29;47.47;101980.56;2616406;54;20170;-77
2021/08/13 08:46:30;;;;;;;11.30;9.57;;;;;;;27.42;46.50;101971.41;2616160;47;20231;-79
2021/08/13 08:48:56;;;;;;;8.02;7.22;;;;;;;27.25;47.26;101973.69;2616060;54;20144;-78
2021/08/13 08:51:24;;;;;;;8.90;8.00;;;;;;;27.31;46.27;101976.16;2615882;54;20135;-75
2021/08/13 08:53:53;;;;;;;9.20;8.10;;;;;;;27.20;46.44;101972.97;2616278;54;20158;-76
2021/08/13 08:56:22;;;;;;;8.38;7.57;;;;;;;27.07;48.31;101966.34;2616492;39;20533;-78
2021/08/13 08:58:48;;;;;;;9.45;7.25;;;;;;;27.35;46.73;101964.63;2616249;54;20146;-78
2021/08/13 09:01:14;;;;;;;9.57;8.07;;;;;;;27.49;46.92;101965.88;2642231;36;20203;-78
2021/08/13 09:03:41;;;;;;;9.20;8.15;;;;;;;27.63;45.46;101960.19;2616019;54;20143;-77
2021/08/13 09:06:06;;;;;;;9.27;8.38;;;;;;;27.58;45.83;101949.78;2615856;54;20127;-77
2021/08/13 09:08:31;;;;;;;7.90;7.10;;;;;;;27.62;45.93;101953.16;2615543;54;20162;-78
2021/08/13 09:10:57;;;;;;;9.18;7.63;;;;;;;27.73;45.80;101957.16;2615552;47;20127;-79
2021/08/13 09:13:23;;;;;;;7.75;7.05;;;;;;;27.80;45.82;101960.50;2616490;39;20515;-77
2021/08/13 09:15:51;;;;;;;7.63;6.85;;;;;;;27.81;45.38;101954.34;2615913;54;20668;-78
2021/08/13 09:18:24;;;;;;;8.85;7.88;;;;;;;27.97;45.68;101955.53;2616332;39;20562;-75
2021/08/13 09:20:58;;;;;;;8.02;6.97;;;;;;;27.94;44.84;101959.13;2615737;54;20127;-77
2021/08/13 09:23:33;;;;;;;8.77;7.57;;;;;;;27.94;44.99;101956.50;2614957;54;20119;-75
2021/08/13 09:26:02;;;;;;;8.02;7.22;;;;;;;27.90;46.44;101952.22;2616508;54;20130;-77
2021/08/13 09:28:49;;;;;;;8.52;7.47;;;;;;;27.82;45.39;101948.16;2616490;54;20143;-78
2021/08/13 09:31:19;;;;;;;8.05;7.25;;;;;;;27.69;45.31;101947.69;2616949;54;20115;-76
2021/08/13 09:33:48;;;;;;;7.68;6.93;;;;;;;27.81;46.43;101934.09;2617596;54;20131;-76
2021/08/13 09:36:18;;;;;;;7.25;6.45;;;;;;;27.95;45.91;101945.03;2617076;54;20219;-78
2021/08/13 09:38:44;;;;;;;8.00;6.90;;;;;;;28.16;45.39;101946.94;2616346;54;20147;-78
2021/08/13 09:41:14;;;;;;;7.95;7.15;;;;;;;28.44;43.89;101950.31;2617244;54;20128;-79
2021/08/13 09:43:53;;;;;;;7.90;6.80;;;;;;;28.50;44.47;101943.97;2616476;47;20162;-78
2021/08/13 09:46:19;;;;;;;9.35;6.88;;;;;;;28.53;44.18;101950.00;2616816;54;20663;-77
2021/08/13 09:48:44;;;;;;;7.90;7.10;;;;;;;28.73;43.92;101958.00;2616846;54;20131;-77
2021/08/13 09:51:33;;;;;;;7.45;6.68;;;;;;;28.91;43.87;101961.72;2617757;39;20510;-79
2021/08/13 09:54:00;;;;;;;8.23;7.43;;;;;;;28.98;43.66;101963.25;2616845;54;20120;-78
2021/08/13 09:56:27;;;;;;;8.65;7.05;;;;;;;28.90;41.44;101962.66;2616822;54;20124;-78
2021/08/13 09:58:53;;;;;;;8.70;7.18;;;;;;;28.69;43.04;101972.22;2617162;54;20188;-78
2021/08/13 10:01:38;;;;;;;9.25;7.18;;;;;;;28.47;43.11;101973.97;2636125;36;20732;-78
2021/08/13 10:04:05;;;;;;;8.00;7.30;;;;;;;28.21;42.51;101957.28;2620948;54;20119;-78
2021/08/13 10:06:31;;;;;;;8.93;7.13;;;;;;;28.20;44.23;101960.84;2619701;54;20210;-80
2021/08/13 10:08:56;;;;;;;9.98;7.80;;;;;;;28.21;43.28;101955.53;2620646;54;20138;-78
2021/08/13 10:11:22;;;;;;;8.10;7.30;;;;;;;28.00;44.24;101955.44;2624858;54;20123;-78
2021/08/13 10:13:47;;;;;;;8.93;7.55;;;;;;;27.91;44.99;101963.66;2622452;47;20108;-78
2021/08/13 10:16:23;;;;;;;7.97;7.18;;;;;;;27.89;44.45;101952.28;2617193;54;20128;-78
2021/08/13 10:18:50;;;;;;;8.20;7.40;;;;;;;28.01;45.00;101944.84;2616515;54;20757;-78
2021/08/13 10:21:16;;;;;;;8.07;7.25;;;;;;;28.23;44.99;101947.56;2616697;54;20132;-78
2021/08/13 10:23:43;;;;;;;10.43;7.30;;;;;;;28.47;44.11;101952.88;2616795;54;20210;-79
2021/08/13 10:26:10;;;;;;;8.90;7.53;;;;;;;28.64;42.63;101942.53;2616346;54;20134;-77
2021/08/13 10:28:35;;;;;;;9.02;7.38;;;;;;;28.70;43.72;101946.72;2616366;54;20143;-79
2021/08/13 10:31:02;;;;;;;10.68;7.38;;;;;;;28.71;43.47;101944.03;2617144;54;20123;-79
2021/08/13 10:33:27;;;;;;;8.93;7.22;;;;;;;28.77;43.75;101949.06;2616668;54;20215;-78
2021/08/13 10:35:55;;;;;;;8.68;7.38;;;;;;;28.80;43.06;101940.19;2616875;54;20127;-77
2021/08/13 10:38:21;;;;;;;8.73;7.93;;;;;;;28.82;43.90;101940.97;2617066;54;20155;-77
2021/08/13 10:40:47;;;;;;;8.27;7.00;;;;;;;28.89;42.09;101942.47;2616648;54;20146;-79
2021/08/13 10:43:14;;;;;;;9.23;7.43;;;;;;;28.70;43.03;101944.09;2617614;54;20145;-78
2021/08/13 10:45:41;;;;;;;7.60;6.82;;;;;;;28.86;44.28;101934.66;2617701;54;20664;-78
2021/08/13 10:48:28;;;;;;;8.02;7.22;;;;;;;29.15;43.73;101932.63;2617166;54;20171;-78
2021/08/13 10:50:58;;;;;;;8.27;6.72;;;;;;;29.36;42.67;101928.28;2616655;54;20161;-77
2021/08/13 10:53:37;;;;;;;9.00;7.82;;;;;;;29.46;41.59;101932.25;2616935;54;20104;-75
2021/08/13 10:56:04;;;;;;;8.60;7.57;;;;;;;29.51;41.87;101932.91;2609450;39;20589;-77
2021/08/13 10:58:35;;;;;;;9.35;7.10;;;;;;;29.39;42.23;101929.00;2618048;39;20635;-77
2021/08/13 11:01:10;;;;;;;8.52;7.60;;;;;;;29.45;43.43;101933.19;2663050;36;20219;-78
2021/08/13 11:03:40;;;;;;;8.15;7.45;;;;;;;29.56;41.63;101931.84;2617219;54;20139;-77
2021/08/13 11:06:06;;;;;;;10.90;8.23;;;;;;;29.63;43.68;101919.25;2617378;54;20903;-79
2021/08/13 11:08:41;;;;;;;10.48;9.00;;;;;;;29.78;41.65;101913.31;2617029;54;20146;-78
2021/08/13 11:11:07;;;;;;;7.63;6.93;;;;;;;29.92;43.09;101909.16;2617070;54;20125;-78
2021/08/13 11:13:41;;;;;;;10.80;8.02;;;;;;;30.03;41.23;101908.69;2617670;54;20124;-76
2021/08/13 11:16:24;;;;;;;9.98;8.07;;;;;;;30.16;40.95;101909.03;2616354;54;20150;-80